Briefing drone pour Seyssinet-pariset

Rechercher une autre localisation

Conditions de vol :


Nous sommes le : Lundi 21 septembre 2020
Il est 00:03 UTC (02:03 LT)

Lever de soleil : 04:57 UTC (06:57 LT)
Coucher de soleil : 18:03 UTC (20:03 LT)

Météo

L'essentiel des conditions de vol

VIGILANCE MÉTÉO FRANCE - Isère (38)
Vigilance :
CARTE TEMSI
CARTES DES FRONTS
METAR de LFLS
LFLS 202330Z AUTO 05002KT 9999 FEW074 BKN084 BKN100 16/15 Q1016

Date d'émission: 20/09/2020
Heure d'émission: 23:30 UTC
Vent: 050° pour 2 KT (4 km/h)
Visibilité horizontale: > 10 km
Plafond :
- Peu de nuages à 7400ft (2256m)
- Nuages morcelés à 8400ft (2560m)
- Nuages morcelés à 10000ft (3048m)
Température: 16 °C
Point de rosée: 15 °C
Humidité: 94%
Pression (QNH): 1016 hPa
TAF de LFLS
LFLS 201909Z 2019/2115 CNL

Conditions prévues :

Heure d'émission : Bulletin éffectué le 20 à 19:00 UTC
Prévision : Valide du 20 a 19:00 UTC au 21 a 15:00 UTC
Nuages : à 0ft (0 m)
WEBCAM POUR SEYSSINET-PARISET

Réglementation

Voler en sécurité

CARTES AERONAUTIQUE 1/500.000
CARTES VAC (LFLS)
SUP AIP




Chargement des AIP...
NOTAM (SEYSSINET-PARISET + Terrain à proximité / FIR )




Chargement des NOTAMS...
CONTACT PREFECTURE 38


Avertissement : Les données mises à disposition sont indicatives. Oxygène Drone ne pourra être tenu responsable de dégâts causés aux biens et aux personnes.